Terminal Aerodrome Forecast
Issued by NWS

Home | Current Version | Previous Version | Text Only | Print | Product List | Glossary On
Versions: 1 2 3 4 5 6 7 8 9 10 11 12 13 14 15 16 17 18 19 20 21 22 23
000
FTUS41 KBGM 150400 AAB
TAFELM
TAF AMD
KELM 150414Z 1504/1524 00000KT P6SM BKN050
      TEMPO 1508/1512 3SM BR
     FM151400 22005KT P6SM SCT200
     FM151900 22005KT P6SM SCT050 BKN150=

USA.gov is the U.S. government's official web portal to all federal, state and local government web resources and services.